Time;durP1;ratioP1;P1;durP2;ratioP2;P2;SDS_P1;SDS_P2;PMS_P1;PMS_P2;Temp;Humidity;BMP_temperature;BMP_pressure;BME280_temperature;BME280_humidity;BME280_pressure;Samples;Min_cycle;Max_cycle;Signal;HPM_P1;HPM_P2
2021/12/15 00:01:45;;;;;;;;;52.25;39.00;;;;;8.56;76.77;102703.72;5084249;27;46069;-64
2021/12/15 00:04:11;;;;;;;;;52.50;41.75;;;;;8.71;76.59;102720.06;5085097;27;45785;-71
2021/12/15 00:06:38;;;;;;;;;48.50;39.25;;;;;8.75;76.67;102708.88;5086772;27;46266;-74
2021/12/15 00:09:09;;;;;;;;;44.50;30.75;;;;;8.83;76.31;102710.09;5093608;27;45471;-68
2021/12/15 00:11:37;;;;;;;;;55.50;42.00;;;;;8.85;76.21;102705.84;5097018;27;45392;-70
2021/12/15 00:14:11;;;;;;;;;52.75;41.25;;;;;8.82;76.24;102696.97;5080518;27;45466;-74
2021/12/15 00:16:38;;;;;;;;;55.00;42.25;;;;;8.69;76.33;102675.56;5098541;27;45330;-75
2021/12/15 00:19:04;;;;;;;;;57.00;42.00;;;;;8.90;75.78;102706.03;5099054;27;45557;-74
2021/12/15 00:21:31;;;;;;;;;51.25;39.25;;;;;8.88;75.88;102698.09;5098828;27;45547;-75
2021/12/15 00:23:57;;;;;;;;;56.00;41.25;;;;;8.86;75.77;102693.66;5099623;27;45423;-75
2021/12/15 00:26:24;;;;;;;;;55.00;43.25;;;;;8.94;75.59;102700.06;5098344;27;45661;-74
2021/12/15 00:28:51;;;;;;;;;50.50;40.50;;;;;8.90;75.91;102688.63;5099243;27;45419;-74
2021/12/15 00:31:18;;;;;;;;;54.25;41.50;;;;;8.51;75.88;102632.13;5098872;27;45575;-68
2021/12/15 00:33:45;;;;;;;;;52.75;40.50;;;;;8.86;75.56;102697.16;5097410;27;45320;-73
2021/12/15 00:36:13;;;;;;;;;48.25;39.75;;;;;8.74;75.67;102678.38;5098289;27;45527;-70
2021/12/15 00:38:41;;;;;;;;;55.50;43.00;;;;;8.30;75.37;102593.81;5095343;27;45372;-64
2021/12/15 00:41:08;;;;;;;;;47.75;38.00;;;;;8.85;75.86;102695.38;5094364;27;45432;-68
2021/12/15 00:43:35;;;;;;;;;52.25;41.50;;;;;8.88;75.40;102695.50;5097822;27;45730;-64
2021/12/15 00:46:01;;;;;;;;;51.00;39.00;;;;;8.85;75.38;102692.78;5097206;27;45674;-64
2021/12/15 00:48:28;;;;;;;;;50.25;38.75;;;;;8.72;75.41;102666.97;5098458;27;45441;-70
2021/12/15 00:50:53;;;;;;;;;51.75;40.50;;;;;8.78;75.44;102674.13;5098240;27;45445;-70
2021/12/15 00:53:19;;;;;;;;;50.75;39.00;;;;;8.75;75.15;102669.69;5096979;27;45430;-70
2021/12/15 00:55:45;;;;;;;;;48.00;36.75;;;;;9.01;75.33;102693.38;5094476;27;46138;-71
2021/12/15 00:58:12;;;;;;;;;45.75;37.00;;;;;9.03;74.84;102692.59;5094828;27;45733;-69
2021/12/15 01:01:01;;;;;;;;;54.25;38.75;;;;;9.04;74.60;102691.78;5095609;27;45539;-65
2021/12/15 01:03:29;;;;;;;;;45.50;35.50;;;;;8.99;74.81;102677.63;5094643;27;45422;-66
2021/12/15 01:06:02;;;;;;;;;38.25;33.25;;;;;9.05;74.34;102690.06;5094729;27;46002;-67
2021/12/15 01:08:30;;;;;;;;;45.00;37.75;;;;;9.03;74.41;102694.31;5094820;27;45358;-71
2021/12/15 01:21:52;;;;;;;;;41.75;33.75;;;;;8.98;74.12;102682.81;5094726;27;45493;-65
2021/12/15 01:24:18;;;;;;;;;42.00;34.75;;;;;9.07;74.31;102691.00;5095176;27;45322;-65
2021/12/15 01:26:44;;;;;;;;;48.00;36.00;;;;;9.12;74.01;102697.31;5094973;27;46736;-64
2021/12/15 01:29:10;;;;;;;;;36.00;30.50;;;;;9.13;74.48;102688.63;5094287;27;45464;-64
2021/12/15 01:31:36;;;;;;;;;45.50;35.00;;;;;9.13;73.93;102683.38;5095194;27;45444;-65
2021/12/15 01:34:02;;;;;;;;;42.25;36.00;;;;;9.09;73.80;102673.66;5095187;27;45468;-66
2021/12/15 01:36:28;;;;;;;;;46.50;36.00;;;;;9.06;73.56;102673.53;5094701;27;46038;-66
2021/12/15 01:38:54;;;;;;;;;45.75;34.75;;;;;9.17;73.53;102693.13;5095532;27;45382;-66
2021/12/15 01:41:23;;;;;;;;;48.75;36.75;;;;;9.12;73.47;102679.88;5099170;27;45310;-64
2021/12/15 01:46:55;;;;;;;;;45.25;36.25;;;;;9.07;73.46;102693.63;5094850;27;45611;-64
2021/12/15 01:49:32;;;;;;;;;47.50;36.25;;;;;8.98;73.20;102693.25;5098753;27;45598;-68
2021/12/15 01:52:04;;;;;;;;;45.75;35.25;;;;;8.93;73.67;102690.47;5096067;27;45319;-64
2021/12/15 01:54:31;;;;;;;;;45.75;37.50;;;;;8.96;74.05;102690.56;5094798;27;45624;-65
2021/12/15 01:56:58;;;;;;;;;47.25;35.50;;;;;8.85;74.00;102666.63;5095358;27;45601;-66
2021/12/15 01:59:26;;;;;;;;;48.25;34.00;;;;;8.98;73.94;102699.38;5079953;27;45495;-65
2021/12/15 02:01:52;;;;;;;;;42.25;35.00;;;;;8.75;73.70;102655.75;5097761;27;45461;-65
2021/12/15 02:04:19;;;;;;;;;43.75;33.50;;;;;9.00;73.71;102691.59;5100179;27;45538;-64
2021/12/15 02:06:47;;;;;;;;;39.25;32.75;;;;;9.08;73.55;102709.34;5101729;27;45398;-64
2021/12/15 02:09:21;;;;;;;;;42.00;34.50;;;;;8.93;73.88;102680.00;5097636;27;45781;-66
2021/12/15 02:11:46;;;;;;;;;48.00;36.00;;;;;9.09;73.62;102705.03;5078818;27;45404;-65
2021/12/15 02:14:12;;;;;;;;;49.00;36.75;;;;;9.01;73.93;102695.97;5097496;27;45812;-65
2021/12/15 02:16:38;;;;;;;;;47.25;35.00;;;;;9.04;73.79;102712.69;5097439;27;46335;-66
2021/12/15 02:19:03;;;;;;;;;42.50;35.75;;;;;9.02;74.29;102722.19;5097303;27;45404;-64
2021/12/15 02:21:29;;;;;;;;;48.75;38.25;;;;;9.06;73.96;102720.56;5100361;27;45467;-65
2021/12/15 02:23:57;;;;;;;;;42.25;31.25;;;;;9.05;73.66;102714.47;5101547;27;45397;-64
2021/12/15 02:26:27;;;;;;;;;49.50;39.00;;;;;8.96;73.68;102694.91;5096711;27;46161;-65
2021/12/15 02:28:57;;;;;;;;;48.25;36.00;;;;;9.01;74.03;102719.50;5098834;27;45556;-64
2021/12/15 02:39:32;;;;;;;;;48.75;37.00;;;;;8.69;74.74;102692.97;5097035;27;45566;-64
2021/12/15 02:41:58;;;;;;;;;51.25;37.00;;;;;8.76;74.67;102704.56;5096895;27;45747;-63
2021/12/15 02:44:24;;;;;;;;;46.25;37.25;;;;;8.87;74.60;102717.25;5097111;27;45408;-62
2021/12/15 02:46:56;;;;;;;;;46.25;36.75;;;;;8.79;74.41;102705.56;5096966;27;45423;-63
2021/12/15 02:49:27;;;;;;;;;44.75;36.75;;;;;8.76;74.55;102702.84;5097465;27;45304;-65
2021/12/15 02:51:54;;;;;;;;;49.25;37.50;;;;;8.69;74.85;102693.84;5097294;27;45732;-63
2021/12/15 02:54:22;;;;;;;;;46.00;37.75;;;;;8.75;74.84;102702.78;5097785;27;45417;-63
2021/12/15 02:56:51;;;;;;;;;50.25;39.25;;;;;8.77;74.93;102707.22;5096304;27;46358;-63
2021/12/15 02:59:21;;;;;;;;;43.75;37.00;;;;;8.75;74.92;102715.81;5091682;27;45825;-67
2021/12/15 03:05:04;;;;;;;;;47.25;37.75;;;;;8.81;74.77;102719.59;5078356;27;45505;-65
2021/12/15 03:15:34;;;;;;;;;51.25;38.00;;;;;8.79;74.53;102715.13;5099798;27;45279;-65
2021/12/15 03:18:05;;;;;;;;;44.75;36.25;;;;;8.76;74.74;102707.19;5097077;27;45657;-68
2021/12/15 03:20:35;;;;;;;;;44.00;36.00;;;;;8.75;74.44;102713.22;5096140;27;45417;-65
2021/12/15 03:23:02;;;;;;;;;39.75;33.25;;;;;8.78;74.51;102714.25;5097083;27;45401;-64
2021/12/15 03:25:30;;;;;;;;;44.50;37.00;;;;;8.82;74.54;102717.88;5098827;27;45349;-66
2021/12/15 03:36:07;;;;;;;;;47.75;34.25;;;;;8.74;74.46;102714.06;5096226;27;45311;-64
2021/12/15 03:38:34;;;;;;;;;47.75;37.50;;;;;8.75;74.41;102719.31;5096093;27;46412;-67
2021/12/15 03:41:00;;;;;;;;;43.00;34.00;;;;;8.74;74.65;102714.06;5096003;27;45449;-64
2021/12/15 03:43:26;;;;;;;;;48.25;38.25;;;;;8.74;74.69;102725.41;5096016;27;45372;-63
2021/12/15 03:45:56;;;;;;;;;43.50;36.25;;;;;8.76;74.50;102720.25;5096369;27;45546;-63
2021/12/15 03:48:25;;;;;;;;;51.50;37.50;;;;;8.70;74.30;102728.69;5095943;27;45809;-63
2021/12/15 03:50:54;;;;;;;;;44.25;35.25;;;;;8.72;74.73;102721.81;5096151;27;45362;-64
2021/12/15 03:53:19;;;;;;;;;49.00;36.50;;;;;8.74;74.52;102724.50;5096073;27;45575;-64
2021/12/15 03:55:46;;;;;;;;;47.50;36.00;;;;;8.72;74.80;102721.81;5096580;27;45476;-65
2021/12/15 03:58:14;;;;;;;;;46.25;34.50;;;;;8.68;74.59;102715.59;5098704;27;46098;-64
2021/12/15 04:00:46;;;;;;;;;44.25;34.75;;;;;8.74;74.64;102735.84;5095875;27;45376;-66
2021/12/15 04:03:21;;;;;;;;;42.00;34.25;;;;;8.73;74.45;102722.72;5096084;27;45509;-64
2021/12/15 04:05:47;;;;;;;;;40.25;32.25;;;;;8.78;74.80;102722.09;5096024;27;45406;-65
2021/12/15 04:08:13;;;;;;;;;43.75;35.50;;;;;8.84;74.45;102727.56;5099778;27;46036;-63
2021/12/15 04:10:38;;;;;;;;;44.00;33.00;;;;;8.87;74.39;102726.78;5098641;27;45465;-67
2021/12/15 04:13:04;;;;;;;;;46.25;33.00;;;;;8.90;74.09;102732.16;5096524;27;45477;-64
2021/12/15 04:15:40;;;;;;;;;37.00;33.50;;;;;8.82;74.36;102716.13;5096323;27;45453;-70
2021/12/15 04:18:06;;;;;;;;;42.00;33.75;;;;;8.61;74.14;102677.00;5097553;27;45748;-70
2021/12/15 04:20:35;;;;;;;;;45.50;33.50;;;;;8.90;73.98;102716.47;5097869;27;45663;-72
2021/12/15 04:23:01;;;;;;;;;43.50;35.00;;;;;8.92;74.25;102722.63;5099382;27;45599;-73
2021/12/15 04:25:32;;;;;;;;;44.50;36.25;;;;;8.87;74.46;102711.09;5096631;27;45808;-71
2021/12/15 04:28:27;;;;;;;;;52.50;37.00;;;;;8.84;73.96;102722.31;5077692;27;45407;-66
2021/12/15 04:30:57;;;;;;;;;53.50;37.50;;;;;8.82;73.94;102710.91;5070153;27;45473;-71
2021/12/15 04:33:54;;;;;;;;;44.25;34.00;;;;;8.83;74.47;102717.06;5096522;27;45433;-69
2021/12/15 04:36:21;;;;;;;;;49.25;34.00;;;;;8.82;74.23;102712.63;5089856;27;45533;-67
2021/12/15 04:38:47;;;;;;;;;44.75;36.25;;;;;8.81;74.12;102716.09;5095294;27;45394;-70
2021/12/15 04:41:16;;;;;;;;;44.75;37.00;;;;;8.82;73.90;102720.47;5095281;27;45906;-67
2021/12/15 04:43:43;;;;;;;;;36.50;29.75;;;;;8.75;73.63;102721.94;5095706;27;45339;-68
2021/12/15 04:46:10;;;;;;;;;41.75;33.00;;;;;8.68;74.03;102725.13;5100459;27;45701;-68
2021/12/15 04:48:38;;;;;;;;;41.50;33.50;;;;;8.69;74.31;102721.72;5101177;27;46274;-75
2021/12/15 04:51:05;;;;;;;;;42.50;33.00;;;;;8.62;74.35;102709.22;5097041;27;45316;-74
2021/12/15 04:53:31;;;;;;;;;46.25;35.75;;;;;8.66;74.41;102704.19;5095329;27;45322;-69
2021/12/15 04:55:57;;;;;;;;;37.00;30.75;;;;;8.85;73.72;102723.22;5095532;27;45382;-69
2021/12/15 04:58:23;;;;;;;;;34.75;31.00;;;;;8.89;73.59;102727.75;5095175;27;45599;-64
2021/12/15 05:00:55;;;;;;;;;35.00;33.00;;;;;8.88;73.15;102734.69;5096699;27;45427;-71
2021/12/15 05:03:22;;;;;;;;;35.25;31.00;;;;;8.90;73.33;102735.66;5097310;27;45539;-68
2021/12/15 05:05:48;;;;;;;;;40.50;33.50;;;;;8.94;73.58;102736.66;5095168;27;45436;-68
2021/12/15 05:08:14;;;;;;;;;45.00;33.00;;;;;8.97;73.25;102742.03;5094946;27;45481;-67
2021/12/15 05:10:41;;;;;;;;;35.25;26.25;;;;;8.95;73.37;102738.44;5076710;27;45396;-65
2021/12/15 05:13:08;;;;;;;;;28.75;28.50;;;;;8.93;72.72;102740.09;5095294;27;45381;-65
2021/12/15 05:15:35;;;;;;;;;35.25;31.50;;;;;8.94;73.09;102751.44;5095251;27;45514;-65
2021/12/15 05:18:01;;;;;;;;;35.25;30.75;;;;;8.97;72.95;102751.56;5097619;27;46270;-64
2021/12/15 05:20:27;;;;;;;;;40.25;33.00;;;;;9.00;73.08;102743.88;5096366;27;45609;-66
2021/12/15 05:22:54;;;;;;;;;32.50;26.25;;;;;9.03;72.84;102743.97;5095372;27;45687;-71
2021/12/15 05:25:19;;;;;;;;;32.00;23.75;;;;;9.01;72.75;102743.91;5095541;27;45314;-64
2021/12/15 05:27:46;;;;;;;;;30.75;25.50;;;;;9.06;72.36;102734.56;5095011;27;45983;-64
2021/12/15 05:30:15;;;;;;;;;28.50;24.25;;;;;9.14;72.29;102747.94;5094723;27;45432;-65
2021/12/15 05:32:41;;;;;;;;;29.00;26.50;;;;;9.20;71.80;102756.00;5097793;27;45504;-65
2021/12/15 05:35:09;;;;;;;;;31.75;26.00;;;;;9.24;71.29;102754.41;5099132;27;45272;-64
2021/12/15 05:37:35;;;;;;;;;28.50;24.50;;;;;9.19;71.33;102763.81;5099978;27;46646;-64
2021/12/15 05:40:03;;;;;;;;;28.50;22.00;;;;;9.15;70.98;102759.28;5095620;27;45529;-68
2021/12/15 05:42:28;;;;;;;;;30.00;23.25;;;;;9.19;71.36;102769.91;5077319;27;45389;-66
2021/12/15 05:44:55;;;;;;;;;30.00;23.50;;;;;9.19;71.41;102766.41;5095656;27;45432;-67
2021/12/15 05:47:22;;;;;;;;;24.00;20.00;;;;;9.20;71.28;102766.47;5095379;27;46409;-72
2021/12/15 05:49:49;;;;;;;;;29.75;24.50;;;;;9.11;71.28;102753.00;5095675;27;45748;-66
2021/12/15 05:52:16;;;;;;;;;26.50;23.50;;;;;9.15;71.25;102767.13;5094771;27;45322;-68
2021/12/15 05:54:41;;;;;;;;;28.50;24.75;;;;;9.12;71.13;102760.03;5096569;27;45359;-68
2021/12/15 05:57:07;;;;;;;;;24.25;24.25;;;;;9.12;71.34;102758.31;5099092;27;46107;-64
2021/12/15 05:59:34;;;;;;;;;27.25;23.50;;;;;9.17;71.16;102765.47;5099393;27;45286;-64
2021/12/15 06:02:00;;;;;;;;;23.50;23.25;;;;;9.15;70.96;102767.13;5099243;27;45390;-65
2021/12/15 06:04:26;;;;;;;;;28.75;26.50;;;;;9.19;71.08;102775.16;5095528;27;45417;-70
2021/12/15 06:06:51;;;;;;;;;29.75;24.50;;;;;9.15;71.16;102760.16;5094263;27;45413;-70
2021/12/15 06:09:17;;;;;;;;;31.25;22.75;;;;;9.18;70.86;102773.34;5097180;27;45802;-70
2021/12/15 06:11:48;;;;;;;;;31.00;24.00;;;;;9.22;70.96;102766.53;5094546;27;45496;-68
2021/12/15 06:14:22;;;;;;;;;25.25;23.75;;;;;9.25;70.71;102770.13;5094712;27;45568;-67
2021/12/15 06:16:48;;;;;;;;;24.75;23.75;;;;;9.28;70.91;102778.13;5094397;27;45530;-67
2021/12/15 06:19:13;;;;;;;;;29.75;23.25;;;;;9.26;70.67;102782.41;5094247;27;45309;-66
2021/12/15 06:21:39;;;;;;;;;32.00;24.25;;;;;9.25;70.41;102788.44;5094226;27;45386;-66
2021/12/15 06:24:05;;;;;;;;;29.50;25.75;;;;;9.23;70.55;102789.22;5094401;27;45358;-69
2021/12/15 06:26:30;;;;;;;;;25.50;22.25;;;;;9.21;70.73;102783.94;5093399;27;45534;-65
2021/12/15 06:28:56;;;;;;;;;30.50;23.50;;;;;9.24;70.58;102788.41;5093833;27;45467;-64
2021/12/15 06:31:22;;;;;;;;;26.75;24.75;;;;;9.29;70.83;102800.81;5094183;27;45885;-64
2021/12/15 06:33:48;;;;;;;;;28.25;22.50;;;;;9.01;70.28;102740.41;5094056;27;45391;-71
2021/12/15 06:36:20;;;;;;;;;26.25;24.75;;;;;9.23;69.93;102800.59;5094340;27;45491;-68
2021/12/15 06:38:49;;;;;;;;;27.50;22.25;;;;;9.09;70.07;102786.06;5078144;27;45432;-67
2021/12/15 06:41:15;;;;;;;;;27.25;26.25;;;;;9.19;70.48;102808.25;5075657;27;45470;-64
2021/12/15 06:43:46;;;;;;;;;22.50;21.00;;;;;9.17;69.99;102805.56;5096586;27;45651;-68
2021/12/15 06:59:48;;;;;;;;;23.75;18.50;;;;;9.00;70.26;102810.09;5100481;27;45349;-75
2021/12/15 07:02:15;;;;;;;;;24.00;24.00;;;;;9.02;69.84;102811.06;5097125;27;45519;-73
2021/12/15 07:04:41;;;;;;;;;17.75;17.75;;;;;9.01;70.16;102810.97;5097398;27;45573;-71
2021/12/15 07:07:06;;;;;;;;;23.25;21.50;;;;;9.04;69.97;102816.34;5100935;27;45423;-73
2021/12/15 07:09:33;;;;;;;;;23.00;20.25;;;;;9.01;70.17;102811.88;5101151;27;45337;-73
2021/12/15 07:12:00;;;;;;;;;21.00;19.00;;;;;9.02;70.35;102818.91;5097184;27;45321;-69
2021/12/15 07:14:26;;;;;;;;;23.75;20.50;;;;;9.03;70.32;102817.16;5097221;27;45508;-64
2021/12/15 07:16:52;;;;;;;;;23.00;22.50;;;;;9.07;70.56;102834.78;5096635;27;45432;-66
2021/12/15 07:19:30;;;;;;;;;17.25;13.00;;;;;9.08;69.81;102829.59;5100174;27;45426;-66
2021/12/15 07:22:14;;;;;;;;;23.50;19.25;;;;;9.00;70.19;102833.63;5100325;27;45366;-68
2021/12/15 07:24:40;;;;;;;;;27.00;23.00;;;;;9.03;70.62;102835.47;5096702;27;45361;-67
2021/12/15 07:27:07;;;;;;;;;26.25;23.75;;;;;8.90;70.85;102824.50;5098701;27;45409;-66
2021/12/15 07:29:33;;;;;;;;;33.25;24.00;;;;;8.97;70.72;102843.97;5098116;27;45385;-66
2021/12/15 07:31:59;;;;;;;;;29.25;23.00;;;;;8.98;70.66;102839.63;5096297;27;45694;-70
2021/12/15 07:34:25;;;;;;;;;19.50;14.75;;;;;8.97;70.36;102846.56;5095876;27;45648;-66
2021/12/15 07:36:51;;;;;;;;;26.25;20.75;;;;;8.91;70.63;102835.84;5095511;27;46320;-67
2021/12/15 07:39:17;;;;;;;;;30.75;22.50;;;;;9.00;70.88;102844.06;5096181;27;45485;-66
2021/12/15 07:42:02;;;;;;;;;21.75;20.25;;;;;9.07;70.29;102850.47;5096250;27;45421;-65
2021/12/15 07:44:34;;;;;;;;;28.75;22.50;;;;;8.94;70.79;102830.75;5096051;27;45482;-64
2021/12/15 07:47:00;;;;;;;;;23.75;19.75;;;;;9.07;70.04;102858.31;5077754;27;45417;-73
2021/12/15 07:49:27;;;;;;;;;31.00;22.50;;;;;9.05;70.44;102857.34;5100397;27;45468;-69
2021/12/15 07:52:00;;;;;;;;;19.25;19.25;;;;;9.05;70.71;102859.97;5100423;27;45362;-65
2021/12/15 07:54:34;;;;;;;;;30.75;22.75;;;;;9.11;70.36;102857.59;5100727;27;45655;-71
2021/12/15 07:57:03;;;;;;;;;20.75;16.75;;;;;9.08;70.00;102863.56;5100391;27;45570;-73
2021/12/15 07:59:29;;;;;;;;;24.75;19.00;;;;;9.03;70.25;102857.28;5096315;27;45508;-65
2021/12/15 08:01:55;;;;;;;;;23.50;19.75;;;;;9.13;70.21;102867.31;5095979;27;45356;-71
2021/12/15 08:04:20;;;;;;;;;23.50;22.00;;;;;9.17;70.26;102873.53;5098050;27;45356;-66
2021/12/15 08:06:46;;;;;;;;;28.25;23.50;;;;;9.09;70.03;102857.53;5100481;27;46256;-64
2021/12/15 08:09:13;;;;;;;;;21.75;17.50;;;;;9.05;70.44;102866.06;5097197;27;45398;-68
2021/12/15 08:11:40;;;;;;;;;34.00;23.00;;;;;9.08;70.84;102871.41;5095971;27;45374;-69
2021/12/15 08:14:06;;;;;;;;;31.50;24.50;;;;;9.09;70.87;102873.22;5096860;27;45482;-73
2021/12/15 08:16:32;;;;;;;;;25.75;23.00;;;;;9.13;70.33;102871.63;5096295;27;45630;-71
2021/12/15 08:18:58;;;;;;;;;25.75;25.75;;;;;9.16;70.72;102866.53;5097321;27;45695;-71
2021/12/15 08:21:24;;;;;;;;;24.00;19.75;;;;;9.15;70.57;102872.56;5081665;27;45327;-72
2021/12/15 08:23:49;;;;;;;;;30.00;26.50;;;;;9.22;70.43;102877.22;5099803;27;45498;-73
2021/12/15 08:26:15;;;;;;;;;30.00;25.00;;;;;9.27;70.28;102880.94;5095449;27;45565;-70
2021/12/15 08:28:41;;;;;;;;;28.00;25.25;;;;;9.21;70.03;102870.22;5098482;27;45389;-70
2021/12/15 08:31:07;;;;;;;;;35.75;30.75;;;;;9.26;70.05;102871.31;5101628;27;45548;-76
2021/12/15 08:33:34;;;;;;;;;36.25;27.75;;;;;9.26;70.31;102876.53;5098498;27;45396;-73
2021/12/15 08:36:07;;;;;;;;;32.75;30.25;;;;;9.29;70.26;102874.03;5098771;27;45386;-70
2021/12/15 08:38:36;;;;;;;;;34.75;30.50;;;;;9.13;70.45;102862.06;5100207;27;45608;-74
2021/12/15 08:41:06;;;;;;;;;33.25;30.50;;;;;9.25;70.61;102882.59;5095401;27;45349;-72
2021/12/15 08:43:33;;;;;;;;;27.50;27.00;;;;;9.27;70.73;102878.31;5096267;27;45484;-73
2021/12/15 08:46:15;;;;;;;;;38.00;28.50;;;;;9.22;70.43;102871.13;5095592;27;46259;-75
2021/12/15 08:48:51;;;;;;;;;33.00;28.50;;;;;9.27;70.69;102883.53;5098297;27;45390;-69
2021/12/15 08:51:25;;;;;;;;;33.50;27.50;;;;;9.26;70.84;102873.94;5077085;27;45387;-73
2021/12/15 08:53:52;;;;;;;;;34.75;29.50;;;;;9.36;70.58;102877.81;5096270;27;45417;-75
2021/12/15 08:56:17;;;;;;;;;32.50;25.75;;;;;9.33;70.75;102875.09;5096220;27;46680;-72
2021/12/15 08:58:43;;;;;;;;;39.25;31.25;;;;;9.37;70.55;102881.31;5094655;27;45522;-76
2021/12/15 09:01:09;;;;;;;;;37.25;32.25;;;;;9.36;70.65;102880.44;5095410;27;45664;-66
2021/12/15 09:03:36;;;;;;;;;36.50;32.25;;;;;9.37;70.62;102871.75;5079726;27;45589;-72
2021/12/15 09:06:03;;;;;;;;;30.25;28.75;;;;;9.55;70.40;102887.31;5098462;27;46129;-72
2021/12/15 09:08:29;;;;;;;;;45.75;32.25;;;;;9.58;70.44;102887.41;5099505;27;45502;-74
2021/12/15 09:10:58;;;;;;;;;39.25;33.25;;;;;9.53;70.58;102894.19;5099274;27;45357;-72
2021/12/15 09:13:29;;;;;;;;;33.25;28.25;;;;;9.48;71.09;102885.28;5097387;27;45492;-74
2021/12/15 09:15:55;;;;;;;;;41.50;32.00;;;;;9.51;70.73;102893.22;5095085;27;45375;-72
2021/12/15 09:18:21;;;;;;;;;32.00;26.50;;;;;9.56;70.68;102894.31;5095006;27;45317;-71
2021/12/15 09:20:48;;;;;;;;;32.50;30.25;;;;;9.63;70.65;102898.06;5095080;27;45459;-66
2021/12/15 09:23:17;;;;;;;;;32.75;28.75;;;;;9.54;70.73;102889.03;5095203;27;45523;-65
2021/12/15 09:25:44;;;;;;;;;31.25;26.50;;;;;9.63;70.83;102903.31;5094781;27;45432;-68
2021/12/15 09:28:10;;;;;;;;;29.25;27.75;;;;;9.62;70.50;102902.41;5095042;27;45445;-66
2021/12/15 09:30:43;;;;;;;;;34.50;28.50;;;;;9.52;70.51;102876.72;5095250;27;45486;-68
2021/12/15 09:33:11;;;;;;;;;27.75;25.75;;;;;9.51;70.99;102906.31;5095641;27;45443;-66
2021/12/15 09:35:37;;;;;;;;;31.50;30.00;;;;;9.48;71.01;102900.97;5097591;27;46279;-65
2021/12/15 09:38:17;;;;;;;;;33.50;26.00;;;;;9.57;70.98;102913.53;5094654;27;45524;-66
2021/12/15 09:40:46;;;;;;;;;29.00;24.75;;;;;9.57;70.54;102901.34;5097495;27;45438;-64
2021/12/15 09:43:12;;;;;;;;;30.25;27.50;;;;;9.58;71.09;102907.47;5095293;27;45338;-70
2021/12/15 09:56:35;;;;;;;;;26.50;24.00;;;;;9.60;71.20;102908.44;5093932;27;45891;-68
2021/12/15 10:05:01;;;;;;;;;31.75;27.75;;;;;9.56;71.62;102886.47;5049226;27;45622;-70
2021/12/15 10:19:28;;;;;;;;;30.00;25.75;;;;;9.68;71.78;102913.16;5090203;27;45738;-68
2021/12/15 10:21:59;;;;;;;;;34.50;28.25;;;;;9.70;71.60;102916.69;5098513;27;45473;-67
2021/12/15 10:24:36;;;;;;;;;27.25;26.75;;;;;9.63;71.61;102900.69;5098600;27;45349;-68
2021/12/15 10:27:05;;;;;;;;;32.50;27.75;;;;;9.70;71.69;102906.22;5097808;27;45350;-64
2021/12/15 10:29:31;;;;;;;;;35.75;30.00;;;;;9.68;71.48;102914.84;5097615;27;45858;-65
2021/12/15 10:32:06;;;;;;;;;30.75;28.00;;;;;9.65;71.43;102905.16;5097988;27;45831;-64
2021/12/15 10:34:32;;;;;;;;;34.25;24.50;;;;;9.74;71.67;102909.88;5097488;27;45445;-66
2021/12/15 10:36:57;;;;;;;;;31.00;26.50;;;;;9.72;71.50;102896.72;5097491;27;45579;-64
2021/12/15 10:39:24;;;;;;;;;27.00;24.00;;;;;9.76;71.34;102897.75;5078933;27;46267;-73
2021/12/15 10:41:54;;;;;;;;;30.75;26.00;;;;;9.81;71.10;102909.28;5078524;27;45479;-73
2021/12/15 10:44:25;;;;;;;;;34.75;27.00;;;;;9.83;71.52;102911.97;5096906;27;45618;-67
2021/12/15 10:46:58;;;;;;;;;37.50;29.50;;;;;9.90;71.34;102904.41;5078374;27;45487;-65
2021/12/15 10:49:30;;;;;;;;;30.75;25.25;;;;;9.93;71.34;102901.03;5089886;27;45515;-71
2021/12/15 10:52:01;;;;;;;;;30.25;24.25;;;;;9.94;70.53;102901.09;5077284;27;45586;-72
2021/12/15 10:54:33;;;;;;;;;20.50;17.75;;;;;10.01;70.46;102899.59;5095115;27;45589;-66
2021/12/15 10:57:10;;;;;;;;;24.00;18.75;;;;;10.09;70.05;102894.66;5095810;27;45885;-66
2021/12/15 10:59:50;;;;;;;;;19.75;18.75;;;;;10.09;69.43;102899.91;5096174;27;45412;-65
2021/12/15 11:02:25;;;;;;;;;25.00;22.00;;;;;10.04;70.13;102898.84;5095747;27;45421;-66
2021/12/15 11:05:10;;;;;;;;;23.25;20.00;;;;;10.14;69.99;102896.63;5095603;27;45330;-65
2021/12/15 11:07:52;;;;;;;;;23.00;23.00;;;;;9.94;69.75;102855.69;5096786;27;46116;-64
2021/12/15 11:10:27;;;;;;;;;27.00;22.25;;;;;10.22;70.03;102894.28;5095819;27;45704;-66
2021/12/15 11:13:00;;;;;;;;;27.50;21.00;;;;;10.25;69.45;102894.44;5095424;27;45938;-70
2021/12/15 11:15:31;;;;;;;;;23.75;20.50;;;;;10.28;69.66;102893.66;5095463;27;45419;-64
2021/12/15 11:18:07;;;;;;;;;19.50;17.25;;;;;10.22;69.41;102862.84;5096202;27;45488;-69
2021/12/15 11:20:36;;;;;;;;;16.50;15.75;;;;;10.37;68.89;102888.78;5098105;27;46234;-67
2021/12/15 11:23:05;;;;;;;;;17.00;17.00;;;;;10.41;69.18;102885.44;5100917;27;45539;-69
2021/12/15 11:25:57;;;;;;;;;15.25;12.25;;;;;10.45;68.83;102892.56;5096510;27;45515;-67
2021/12/15 11:28:44;;;;;;;;;16.50;15.00;;;;;10.46;68.63;102885.59;5089261;27;45279;-72
2021/12/15 11:31:16;;;;;;;;;18.75;15.00;;;;;10.49;68.68;102885.72;5094766;27;46216;-68
2021/12/15 11:34:02;;;;;;;;;22.00;17.50;;;;;10.55;68.89;102889.44;5093580;27;45468;-74
2021/12/15 11:36:44;;;;;;;;;14.75;11.25;;;;;10.59;68.45;102877.34;5099983;27;45535;-73
2021/12/15 11:39:16;;;;;;;;;77.00;68.00;;;;;10.70;72.52;102877.72;5097514;27;45551;-70
2021/12/15 11:41:45;;;;;;;;;71.50;53.25;;;;;10.92;71.52;102880.28;5076269;27;45692;-69
2021/12/15 11:44:25;;;;;;;;;34.00;30.25;;;;;10.99;68.50;102873.53;5099112;27;45559;-69
2021/12/15 11:47:01;;;;;;;;;21.25;20.25;;;;;11.01;68.56;102875.38;5098450;27;45476;-72
2021/12/15 11:49:39;;;;;;;;;23.50;21.25;;;;;10.99;67.91;102870.91;5095434;27;45384;-73
2021/12/15 11:52:10;;;;;;;;;19.00;16.25;;;;;10.93;68.33;102868.06;5092407;27;45516;-75
2021/12/15 11:54:48;;;;;;;;;14.75;10.75;;;;;10.81;67.65;102858.91;5098646;27;45521;-70
2021/12/15 11:57:19;;;;;;;;;13.50;13.00;;;;;10.90;68.03;102875.81;5098300;27;45626;-67
2021/12/15 11:59:52;;;;;;;;;16.25;16.25;;;;;10.88;67.78;102870.53;5097959;27;45499;-67
2021/12/15 12:02:22;;;;;;;;;15.75;15.75;;;;;10.85;67.48;102873.03;5080462;27;46724;-70
2021/12/15 12:04:57;;;;;;;;;18.25;17.25;;;;;10.73;67.58;102863.03;5099504;27;45571;-70
2021/12/15 12:07:33;;;;;;;;;22.50;20.25;;;;;10.60;68.40;102876.50;5100179;27;45536;-71
2021/12/15 12:10:11;;;;;;;;;19.00;16.50;;;;;10.45;69.02;102863.75;5100390;27;45560;-69
2021/12/15 12:12:52;;;;;;;;;18.00;16.50;;;;;10.54;68.94;102858.84;5076845;27;46846;-72
2021/12/15 12:15:23;;;;;;;;;16.25;15.00;;;;;10.55;68.69;102858.00;5095088;27;45422;-72
2021/12/15 12:17:55;;;;;;;;;14.75;14.25;;;;;10.61;68.92;102859.97;5094490;27;45459;-64
2021/12/15 12:21:06;;;;;;;;;16.75;15.00;;;;;10.51;69.13;102866.59;5095493;27;45699;-74
2021/12/15 12:23:33;;;;;;;;;12.50;12.25;;;;;10.43;68.76;102860.19;5094780;27;46928;-70
2021/12/15 12:26:05;;;;;;;;;16.50;15.75;;;;;10.46;68.95;102862.91;5094400;27;45374;-68
2021/12/15 12:28:36;;;;;;;;;17.50;13.00;;;;;10.43;69.36;102859.28;5095145;27;45430;-69
2021/12/15 12:31:10;;;;;;;;;17.25;15.50;;;;;10.40;69.09;102855.72;5095791;27;45738;-65
2021/12/15 12:33:36;;;;;;;;;17.50;14.75;;;;;10.45;68.84;102849.75;5095487;27;46252;-67
2021/12/15 12:36:05;;;;;;;;;22.00;19.50;;;;;10.52;69.33;102854.38;5077318;27;45424;-66
2021/12/15 12:38:35;;;;;;;;;20.50;15.75;;;;;10.50;68.43;102846.47;5101318;27;45429;-69
2021/12/15 12:41:23;;;;;;;;;19.00;17.75;;;;;10.44;69.05;102837.50;5076715;27;45629;-71
2021/12/15 12:43:57;;;;;;;;;19.00;14.25;;;;;10.27;68.75;102798.44;5078305;27;45454;-70
2021/12/15 12:46:36;;;;;;;;;18.25;15.00;;;;;10.56;68.88;102830.09;5096965;27;45595;-67
2021/12/15 13:00:26;;;;;;;;;17.75;14.00;;;;;10.50;68.47;102849.09;5097390;27;45734;-70
2021/12/15 13:03:08;;;;;;;;;15.00;10.50;;;;;10.29;68.94;102811.63;5096161;27;45269;-66